sensor_id;sensor_type;location;lat;lon;timestamp;pressure;altitude;pressure_sealevel;temperature;humidity
15750;BME280;7976;52.526;13.326;2023-02-23T00:00:31;100950.66;;;6.99;79.74
15750;BME280;7976;52.526;13.326;2023-02-23T00:02:59;100939.44;;;6.97;79.86
15750;BME280;7976;52.526;13.326;2023-02-23T00:05:29;100944.66;;;6.95;80.06
15750;BME280;7976;52.526;13.326;2023-02-23T00:07:58;100943.81;;;6.93;79.91
15750;BME280;7976;52.526;13.326;2023-02-23T00:10:24;100938.69;;;6.90;80.19
15750;BME280;7976;52.526;13.326;2023-02-23T00:12:56;100935.25;;;6.90;80.23
15750;BME280;7976;52.526;13.326;2023-02-23T00:15:26;100942.19;;;6.89;80.20
15750;BME280;7976;52.526;13.326;2023-02-23T00:17:56;100930.06;;;6.90;80.28
15750;BME280;7976;52.526;13.326;2023-02-23T00:20:24;100942.13;;;6.92;80.26
15750;BME280;7976;52.526;13.326;2023-02-23T00:22:53;100936.94;;;6.92;80.38
15750;BME280;7976;52.526;13.326;2023-02-23T00:25:23;100935.22;;;6.91;80.31
15750;BME280;7976;52.526;13.326;2023-02-23T00:27:51;100931.84;;;6.86;80.18
15750;BME280;7976;52.526;13.326;2023-02-23T00:30:19;100937.09;;;6.83;80.47
15750;BME280;7976;52.526;13.326;2023-02-23T00:32:49;100937.88;;;6.87;80.75
15750;BME280;7976;52.526;13.326;2023-02-23T00:35:18;100924.84;;;6.88;80.43
15750;BME280;7976;52.526;13.326;2023-02-23T00:37:47;100935.28;;;6.87;80.32
15750;BME280;7976;52.526;13.326;2023-02-23T00:40:16;100932.78;;;6.82;80.56
15750;BME280;7976;52.526;13.326;2023-02-23T00:42:47;100927.69;;;6.78;80.54
15750;BME280;7976;52.526;13.326;2023-02-23T00:45:17;100932.06;;;6.74;80.72
15750;BME280;7976;52.526;13.326;2023-02-23T00:47:44;100925.16;;;6.75;80.75
15750;BME280;7976;52.526;13.326;2023-02-23T00:50:16;100921.72;;;6.73;80.92
15750;BME280;7976;52.526;13.326;2023-02-23T00:52:45;100919.09;;;6.73;80.89
15750;BME280;7976;52.526;13.326;2023-02-23T00:55:14;100922.59;;;6.70;81.04
15750;BME280;7976;52.526;13.326;2023-02-23T00:57:41;100920.94;;;6.68;81.14
15750;BME280;7976;52.526;13.326;2023-02-23T01:00:12;100923.56;;;6.66;81.38
15750;BME280;7976;52.526;13.326;2023-02-23T01:02:43;100920.06;;;6.67;81.45
15750;BME280;7976;52.526;13.326;2023-02-23T01:05:10;100930.41;;;6.70;81.57
15750;BME280;7976;52.526;13.326;2023-02-23T01:07:38;100929.53;;;6.71;81.05
15750;BME280;7976;52.526;13.326;2023-02-23T01:10:07;100927.84;;;6.69;81.05
15750;BME280;7976;52.526;13.326;2023-02-23T01:12:46;100920.97;;;6.66;81.06
15750;BME280;7976;52.526;13.326;2023-02-23T01:15:17;100930.47;;;6.67;81.27
15750;BME280;7976;52.526;13.326;2023-02-23T01:17:46;100917.53;;;6.64;81.44
15750;BME280;7976;52.526;13.326;2023-02-23T01:20:15;100922.72;;;6.64;81.45
15750;BME280;7976;52.526;13.326;2023-02-23T01:22:46;100918.41;;;6.63;81.40
15750;BME280;7976;52.526;13.326;2023-02-23T01:25:13;100912.44;;;6.60;81.35
15750;BME280;7976;52.526;13.326;2023-02-23T01:27:42;100912.44;;;6.60;81.56
15750;BME280;7976;52.526;13.326;2023-02-23T01:30:11;100921.97;;;6.59;81.35
15750;BME280;7976;52.526;13.326;2023-02-23T01:32:40;100919.41;;;6.56;81.56
15750;BME280;7976;52.526;13.326;2023-02-23T01:35:10;100915.97;;;6.54;81.61
15750;BME280;7976;52.526;13.326;2023-02-23T01:37:39;100903.84;;;6.53;81.66
15750;BME280;7976;52.526;13.326;2023-02-23T01:40:12;100903.09;;;6.48;81.56
15750;BME280;7976;52.526;13.326;2023-02-23T01:42:42;100903.13;;;6.47;81.94
15750;BME280;7976;52.526;13.326;2023-02-23T01:45:23;100903.94;;;6.49;81.96
15750;BME280;7976;52.526;13.326;2023-02-23T01:47:56;100905.69;;;6.50;81.86
15750;BME280;7976;52.526;13.326;2023-02-23T01:50:29;100892.69;;;6.50;81.75
15750;BME280;7976;52.526;13.326;2023-02-23T01:52:58;100896.19;;;6.47;81.97
15750;BME280;7976;52.526;13.326;2023-02-23T01:55:26;100892.75;;;6.45;81.68
15750;BME280;7976;52.526;13.326;2023-02-23T01:58:02;100889.31;;;6.43;81.71
15750;BME280;7976;52.526;13.326;2023-02-23T02:00:31;100891.09;;;6.41;82.02
15750;BME280;7976;52.526;13.326;2023-02-23T02:03:07;100884.22;;;6.38;81.95
15750;BME280;7976;52.526;13.326;2023-02-23T02:05:38;100883.34;;;6.38;82.23
15750;BME280;7976;52.526;13.326;2023-02-23T02:08:07;100888.56;;;6.36;82.17
15750;BME280;7976;52.526;13.326;2023-02-23T02:10:36;100884.31;;;6.34;82.15
15750;BME280;7976;52.526;13.326;2023-02-23T02:13:16;100876.53;;;6.32;82.21
15750;BME280;7976;52.526;13.326;2023-02-23T02:22:45;100868.88;;;6.23;82.46
15750;BME280;7976;52.526;13.326;2023-02-23T02:25:42;100862.88;;;6.20;82.89
15750;BME280;7976;52.526;13.326;2023-02-23T02:28:42;100863.78;;;6.19;82.69
15750;BME280;7976;52.526;13.326;2023-02-23T02:31:54;100868.97;;;6.19;82.74
15750;BME280;7976;52.526;13.326;2023-02-23T02:34:56;100859.47;;;6.19;82.82
15750;BME280;7976;52.526;13.326;2023-02-23T02:38:05;100865.47;;;6.20;82.79
15750;BME280;7976;52.526;13.326;2023-02-23T02:40:43;100863.72;;;6.22;82.93
15750;BME280;7976;52.526;13.326;2023-02-23T02:43:30;100858.56;;;6.20;82.62
15750;BME280;7976;52.526;13.326;2023-02-23T02:46:05;100862.81;;;6.23;82.78
15750;BME280;7976;52.526;13.326;2023-02-23T02:48:45;100860.19;;;6.26;82.83
15750;BME280;7976;52.526;13.326;2023-02-23T02:51:23;100859.34;;;6.25;82.63
15750;BME280;7976;52.526;13.326;2023-02-23T02:54:01;100847.25;;;6.24;82.62
15750;BME280;7976;52.526;13.326;2023-02-23T02:56:35;100854.25;;;6.19;82.57
15750;BME280;7976;52.526;13.326;2023-02-23T02:59:09;100853.38;;;6.20;82.85
15750;BME280;7976;52.526;13.326;2023-02-23T03:01:56;100846.41;;;6.22;82.82
15750;BME280;7976;52.526;13.326;2023-02-23T03:04:41;100842.94;;;6.22;82.83
15750;BME280;7976;52.526;13.326;2023-02-23T03:07:33;100843.84;;;6.21;82.73
15750;BME280;7976;52.526;13.326;2023-02-23T03:10:34;100844.63;;;6.26;82.92
15750;BME280;7976;52.526;13.326;2023-02-23T03:13:35;100841.91;;;6.30;82.73
15750;BME280;7976;52.526;13.326;2023-02-23T03:16:36;100834.25;;;6.24;82.56
15750;BME280;7976;52.526;13.326;2023-02-23T03:19:35;100835.22;;;6.19;82.59
15750;BME280;7976;52.526;13.326;2023-02-23T03:22:27;100833.47;;;6.19;82.76
15750;BME280;7976;52.526;13.326;2023-02-23T03:25:19;100832.63;;;6.19;83.05
15750;BME280;7976;52.526;13.326;2023-02-23T03:28:13;100832.63;;;6.19;82.80
15750;BME280;7976;52.526;13.326;2023-02-23T03:31:13;100828.28;;;6.19;82.94
15750;BME280;7976;52.526;13.326;2023-02-23T03:34:08;100836.91;;;6.20;83.04
15750;BME280;7976;52.526;13.326;2023-02-23T03:37:05;100831.72;;;6.20;82.88
15750;BME280;7976;52.526;13.326;2023-02-23T03:40:01;100829.19;;;6.17;82.86
15750;BME280;7976;52.526;13.326;2023-02-23T03:42:50;100834.44;;;6.14;82.97
15750;BME280;7976;52.526;13.326;2023-02-23T03:45:38;100830.97;;;6.13;82.91
15750;BME280;7976;52.526;13.326;2023-02-23T03:48:26;100837.06;;;6.12;83.17
15750;BME280;7976;52.526;13.326;2023-02-23T03:51:12;100830.22;;;6.07;83.10
15750;BME280;7976;52.526;13.326;2023-02-23T03:54:06;100821.63;;;6.03;83.16
15750;BME280;7976;52.526;13.326;2023-02-23T03:56:57;100827.63;;;6.07;83.68
15750;BME280;7976;52.526;13.326;2023-02-23T03:59:48;100820.75;;;6.04;83.61
15750;BME280;7976;52.526;13.326;2023-02-23T04:02:47;100818.16;;;6.03;83.21
15750;BME280;7976;52.526;13.326;2023-02-23T04:05:38;100813.84;;;6.03;83.51
15750;BME280;7976;52.526;13.326;2023-02-23T04:08:31;100817.38;;;6.01;83.48
15750;BME280;7976;52.526;13.326;2023-02-23T04:11:26;100822.53;;;6.02;83.62
15750;BME280;7976;52.526;13.326;2023-02-23T04:14:17;100821.69;;;6.00;83.74
15750;BME280;7976;52.526;13.326;2023-02-23T04:16:47;100817.41;;;5.96;83.56
15750;BME280;7976;52.526;13.326;2023-02-23T04:19:14;100816.53;;;5.99;83.88
15750;BME280;7976;52.526;13.326;2023-02-23T04:21:41;100818.28;;;5.97;83.93
15750;BME280;7976;52.526;13.326;2023-02-23T04:24:09;100820.88;;;5.97;83.62
15750;BME280;7976;52.526;13.326;2023-02-23T04:26:36;100822.56;;;6.01;83.81
15750;BME280;7976;52.526;13.326;2023-02-23T04:29:02;100825.97;;;6.01;84.04
15750;BME280;7976;52.526;13.326;2023-02-23T04:31:29;100819.97;;;5.98;83.33
15750;BME280;7976;52.526;13.326;2023-02-23T04:33:56;100810.63;;;5.91;84.06
15750;BME280;7976;52.526;13.326;2023-02-23T04:36:24;100808.00;;;5.92;83.77
15750;BME280;7976;52.526;13.326;2023-02-23T04:38:51;100814.06;;;5.90;83.81
15750;BME280;7976;52.526;13.326;2023-02-23T04:41:18;100805.50;;;5.85;83.75
15750;BME280;7976;52.526;13.326;2023-02-23T04:43:45;100808.09;;;5.85;84.16
15750;BME280;7976;52.526;13.326;2023-02-23T04:46:11;100808.06;;;5.86;84.13
15750;BME280;7976;52.526;13.326;2023-02-23T04:48:38;100808.03;;;5.89;84.44
15750;BME280;7976;52.526;13.326;2023-02-23T04:51:05;100801.94;;;5.92;83.99
15750;BME280;7976;52.526;13.326;2023-02-23T04:53:33;100801.16;;;5.87;83.96
15750;BME280;7976;52.526;13.326;2023-02-23T04:56:00;100795.13;;;5.85;83.97
15750;BME280;7976;52.526;13.326;2023-02-23T04:58:27;100794.28;;;5.83;83.86
15750;BME280;7976;52.526;13.326;2023-02-23T05:01:07;100788.31;;;5.76;84.01
15750;BME280;7976;52.526;13.326;2023-02-23T05:03:40;100800.41;;;5.79;84.17
15750;BME280;7976;52.526;13.326;2023-02-23T05:06:08;100791.84;;;5.74;84.22
15750;BME280;7976;52.526;13.326;2023-02-23T05:08:42;100796.16;;;5.73;84.32
15750;BME280;7976;52.526;13.326;2023-02-23T05:11:14;100784.94;;;5.71;84.42
15750;BME280;7976;52.526;13.326;2023-02-23T05:13:45;100785.69;;;5.78;84.58
15750;BME280;7976;52.526;13.326;2023-02-23T05:16:13;100783.06;;;5.81;84.55
15750;BME280;7976;52.526;13.326;2023-02-23T05:18:40;100787.41;;;5.79;84.32
15750;BME280;7976;52.526;13.326;2023-02-23T05:21:11;100785.75;;;5.75;84.15
15750;BME280;7976;52.526;13.326;2023-02-23T05:23:39;100791.84;;;5.74;84.22
15750;BME280;7976;52.526;13.326;2023-02-23T05:26:09;100786.63;;;5.74;84.46
15750;BME280;7976;52.526;13.326;2023-02-23T05:28:38;100786.63;;;5.74;84.41
15750;BME280;7976;52.526;13.326;2023-02-23T05:31:06;100785.78;;;5.73;84.40
15750;BME280;7976;52.526;13.326;2023-02-23T05:33:35;100791.91;;;5.69;84.48
15750;BME280;7976;52.526;13.326;2023-02-23T05:36:08;100791.91;;;5.68;84.48
15750;BME280;7976;52.526;13.326;2023-02-23T05:38:35;100795.44;;;5.65;84.42
15750;BME280;7976;52.526;13.326;2023-02-23T05:41:09;100789.31;;;5.69;84.54
15750;BME280;7976;52.526;13.326;2023-02-23T05:43:36;100797.88;;;5.73;84.59
15750;BME280;7976;52.526;13.326;2023-02-23T05:46:06;100795.28;;;5.73;84.33
15750;BME280;7976;52.526;13.326;2023-02-23T05:48:33;100799.69;;;5.68;84.14
15750;BME280;7976;52.526;13.326;2023-02-23T05:51:01;100809.31;;;5.63;84.19
15750;BME280;7976;52.526;13.326;2023-02-23T05:53:28;100805.91;;;5.58;84.27
15750;BME280;7976;52.526;13.326;2023-02-23T05:55:55;100810.31;;;5.53;84.48
15750;BME280;7976;52.526;13.326;2023-02-23T05:58:24;100820.75;;;5.50;84.58
15750;BME280;7976;52.526;13.326;2023-02-23T06:00:51;100817.34;;;5.46;84.62
15750;BME280;7976;52.526;13.326;2023-02-23T06:03:18;100824.28;;;5.47;84.81
15750;BME280;7976;52.526;13.326;2023-02-23T06:05:48;100824.28;;;5.47;84.83
15750;BME280;7976;52.526;13.326;2023-02-23T06:08:16;100821.66;;;5.49;84.86
15750;BME280;7976;52.526;13.326;2023-02-23T06:10:43;100815.56;;;5.50;85.40
15750;BME280;7976;52.526;13.326;2023-02-23T06:13:10;100827.59;;;5.55;84.78
15750;BME280;7976;52.526;13.326;2023-02-23T06:15:40;100825.88;;;5.56;84.73
15750;BME280;7976;52.526;13.326;2023-02-23T06:18:07;100818.22;;;5.47;84.53
15750;BME280;7976;52.526;13.326;2023-02-23T06:20:35;100821.72;;;5.43;84.44
15750;BME280;7976;52.526;13.326;2023-02-23T06:23:03;100825.25;;;5.39;84.90
15750;BME280;7976;52.526;13.326;2023-02-23T06:25:32;100817.53;;;5.36;84.77
15750;BME280;7976;52.526;13.326;2023-02-23T06:27:58;100818.41;;;5.35;85.11
15750;BME280;7976;52.526;13.326;2023-02-23T06:30:25;100823.56;;;5.36;85.09
15750;BME280;7976;52.526;13.326;2023-02-23T06:32:53;100827.00;;;5.37;85.01
15750;BME280;7976;52.526;13.326;2023-02-23T06:35:21;100829.59;;;5.38;85.11
15750;BME280;7976;52.526;13.326;2023-02-23T06:37:48;100832.16;;;5.40;85.28
15750;BME280;7976;52.526;13.326;2023-02-23T06:40:16;100835.59;;;5.42;85.26
15750;BME280;7976;52.526;13.326;2023-02-23T06:42:43;100836.47;;;5.42;84.96
15750;BME280;7976;52.526;13.326;2023-02-23T06:45:11;100832.16;;;5.40;85.06
15750;BME280;7976;52.526;13.326;2023-02-23T06:47:39;100835.59;;;5.42;84.96
15750;BME280;7976;52.526;13.326;2023-02-23T06:50:09;100839.88;;;5.46;85.01
15750;BME280;7976;52.526;13.326;2023-02-23T06:52:37;100842.41;;;5.49;84.96
15750;BME280;7976;52.526;13.326;2023-02-23T06:55:06;100842.34;;;5.52;85.06
15750;BME280;7976;52.526;13.326;2023-02-23T06:57:33;100837.09;;;5.56;84.99
15750;BME280;7976;52.526;13.326;2023-02-23T07:00:00;100831.84;;;5.61;85.00
15750;BME280;7976;52.526;13.326;2023-02-23T07:02:27;100838.63;;;5.68;84.62
15750;BME280;7976;52.526;13.326;2023-02-23T07:04:54;100842.00;;;5.73;84.64
15750;BME280;7976;52.526;13.326;2023-02-23T07:07:25;100838.44;;;5.80;84.61
15750;BME280;7976;52.526;13.326;2023-02-23T07:09:52;100840.16;;;5.84;84.28
15750;BME280;7976;52.526;13.326;2023-02-23T07:12:20;100844.41;;;5.86;84.18
15750;BME280;7976;52.526;13.326;2023-02-23T07:14:47;100843.53;;;5.89;84.15
15750;BME280;7976;52.526;13.326;2023-02-23T07:17:14;100840.88;;;5.92;83.87
15750;BME280;7976;52.526;13.326;2023-02-23T07:19:42;100836.53;;;5.94;83.81
15750;BME280;7976;52.526;13.326;2023-02-23T07:22:09;100832.22;;;5.91;83.69
15750;BME280;7976;52.526;13.326;2023-02-23T07:24:37;100836.53;;;5.94;83.42
15750;BME280;7976;52.526;13.326;2023-02-23T07:27:05;100830.50;;;5.92;83.58
15750;BME280;7976;52.526;13.326;2023-02-23T07:29:32;100834.75;;;5.96;83.46
15750;BME280;7976;52.526;13.326;2023-02-23T07:31:59;100825.94;;;6.03;83.76
15750;BME280;7976;52.526;13.326;2023-02-23T07:34:26;100839.69;;;6.11;83.34
15750;BME280;7976;52.526;13.326;2023-02-23T07:36:53;100833.56;;;6.13;83.18
15750;BME280;7976;52.526;13.326;2023-02-23T07:39:20;100832.69;;;6.13;83.36
15750;BME280;7976;52.526;13.326;2023-02-23T07:41:48;100831.03;;;6.10;82.98
15750;BME280;7976;52.526;13.326;2023-02-23T07:44:17;100817.25;;;6.07;82.90
15750;BME280;7976;52.526;13.326;2023-02-23T07:46:44;100825.88;;;6.09;83.05
15750;BME280;7976;52.526;13.326;2023-02-23T07:49:12;100830.97;;;6.13;83.14
15750;BME280;7976;52.526;13.326;2023-02-23T07:51:40;100834.34;;;6.18;83.00
15750;BME280;7976;52.526;13.326;2023-02-23T07:54:08;100826.53;;;6.20;82.86
15750;BME280;7976;52.526;13.326;2023-02-23T07:56:35;100830.78;;;6.24;82.94
15750;BME280;7976;52.526;13.326;2023-02-23T07:59:03;100834.22;;;6.26;82.92
15750;BME280;7976;52.526;13.326;2023-02-23T08:01:30;100828.16;;;6.25;82.73
15750;BME280;7976;52.526;13.326;2023-02-23T08:03:57;100834.16;;;6.29;82.75
15750;BME280;7976;52.526;13.326;2023-02-23T08:06:24;100832.34;;;6.34;83.24
15750;BME280;7976;52.526;13.326;2023-02-23T08:08:51;100825.31;;;6.39;82.67
15750;BME280;7976;52.526;13.326;2023-02-23T08:11:18;100831.31;;;6.43;82.63
15750;BME280;7976;52.526;13.326;2023-02-23T08:13:45;100824.28;;;6.48;82.45
15750;BME280;7976;52.526;13.326;2023-02-23T08:16:13;100820.84;;;6.46;82.32
15750;BME280;7976;52.526;13.326;2023-02-23T08:18:41;100822.47;;;6.51;82.50
15750;BME280;7976;52.526;13.326;2023-02-23T08:21:07;100824.91;;;6.59;82.45
15750;BME280;7976;52.526;13.326;2023-02-23T08:23:34;100823.06;;;6.64;82.38
15750;BME280;7976;52.526;13.326;2023-02-23T08:26:02;100822.22;;;6.63;82.13
15750;BME280;7976;52.526;13.326;2023-02-23T08:28:30;100821.25;;;6.69;82.24
15750;BME280;7976;52.526;13.326;2023-02-23T08:30:57;100825.56;;;6.70;81.97
15750;BME280;7976;52.526;13.326;2023-02-23T08:33:26;100823.75;;;6.73;81.92
15750;BME280;7976;52.526;13.326;2023-02-23T08:35:53;100826.31;;;6.76;82.02
15750;BME280;7976;52.526;13.326;2023-02-23T08:38:20;100833.09;;;6.82;82.08
15750;BME280;7976;52.526;13.326;2023-02-23T08:40:46;100821.78;;;6.84;81.76
15750;BME280;7976;52.526;13.326;2023-02-23T08:43:13;100822.56;;;6.89;81.87
15750;BME280;7976;52.526;13.326;2023-02-23T08:45:40;100818.13;;;6.94;81.74
15750;BME280;7976;52.526;13.326;2023-02-23T08:48:07;100813.75;;;6.96;81.59
15750;BME280;7976;52.526;13.326;2023-02-23T08:50:36;100831.84;;;7.01;81.33
15750;BME280;7976;52.526;13.326;2023-02-23T08:53:03;100827.34;;;7.07;81.57
15750;BME280;7976;52.526;13.326;2023-02-23T08:55:31;100833.34;;;7.11;81.27
15750;BME280;7976;52.526;13.326;2023-02-23T08:58:00;100824.66;;;7.12;80.98
15750;BME280;7976;52.526;13.326;2023-02-23T09:00:27;100824.59;;;7.15;81.01
15750;BME280;7976;52.526;13.326;2023-02-23T09:02:54;100833.09;;;7.23;81.33
15750;BME280;7976;52.526;13.326;2023-02-23T09:05:20;100837.28;;;7.30;81.25
15750;BME280;7976;52.526;13.326;2023-02-23T09:07:49;100824.16;;;7.34;81.09
15750;BME280;7976;52.526;13.326;2023-02-23T09:10:18;100831.88;;;7.37;81.03
15750;BME280;7976;52.526;13.326;2023-02-23T09:12:49;100833.59;;;7.40;80.89
15750;BME280;7976;52.526;13.326;2023-02-23T09:15:18;100832.69;;;7.41;80.92
15750;BME280;7976;52.526;13.326;2023-02-23T09:17:45;100834.34;;;7.43;80.76
15750;BME280;7976;52.526;13.326;2023-02-23T09:20:14;100835.94;;;7.49;80.81
15750;BME280;7976;52.526;13.326;2023-02-23T09:22:43;100829.78;;;7.53;80.73
15750;BME280;7976;52.526;13.326;2023-02-23T09:25:14;100838.31;;;7.59;80.65
15750;BME280;7976;52.526;13.326;2023-02-23T09:27:43;100836.47;;;7.64;80.56
15750;BME280;7976;52.526;13.326;2023-02-23T09:30:11;100834.53;;;7.73;80.69
15750;BME280;7976;52.526;13.326;2023-02-23T09:32:39;100836.09;;;7.80;80.49
15750;BME280;7976;52.526;13.326;2023-02-23T09:35:07;100836.84;;;7.85;80.51
15750;BME280;7976;52.526;13.326;2023-02-23T09:37:34;100828.84;;;7.91;80.32
15750;BME280;7976;52.526;13.326;2023-02-23T09:40:02;100834.75;;;7.97;79.94
15750;BME280;7976;52.526;13.326;2023-02-23T09:42:41;100833.81;;;8.01;79.98
15750;BME280;7976;52.526;13.326;2023-02-23T09:45:24;100835.41;;;8.07;79.88
15750;BME280;7976;52.526;13.326;2023-02-23T09:48:15;100827.41;;;8.13;79.90
15750;BME280;7976;52.526;13.326;2023-02-23T09:50:48;100822.84;;;8.21;79.66
15750;BME280;7976;52.526;13.326;2023-02-23T09:53:39;100826.22;;;8.26;79.62
15750;BME280;7976;52.526;13.326;2023-02-23T09:56:13;100822.56;;;8.33;79.70
15750;BME280;7976;52.526;13.326;2023-02-23T09:58:43;100820.66;;;8.39;79.61
15750;BME280;7976;52.526;13.326;2023-02-23T10:01:32;100823.03;;;8.48;79.62
15750;BME280;7976;52.526;13.326;2023-02-23T10:04:10;100826.28;;;8.56;79.45
15750;BME280;7976;52.526;13.326;2023-02-23T10:06:45;100827.69;;;8.68;79.45
15750;BME280;7976;52.526;13.326;2023-02-23T10:09:24;100830.03;;;8.77;79.33
15750;BME280;7976;52.526;13.326;2023-02-23T10:12:04;100821.16;;;8.82;79.24
15750;BME280;7976;52.526;13.326;2023-02-23T10:15:03;100825.41;;;8.86;79.18
15750;BME280;7976;52.526;13.326;2023-02-23T10:17:43;100825.97;;;8.96;79.12
15750;BME280;7976;52.526;13.326;2023-02-23T10:20:26;100822.16;;;9.08;78.94
15750;BME280;7976;52.526;13.326;2023-02-23T10:23:04;100817.69;;;9.11;78.89
15750;BME280;7976;52.526;13.326;2023-02-23T10:25:36;100813.28;;;9.13;78.81
15750;BME280;7976;52.526;13.326;2023-02-23T10:28:12;100810.63;;;9.15;78.73
15750;BME280;7976;52.526;13.326;2023-02-23T10:30:43;100817.34;;;9.23;78.93
15750;BME280;7976;52.526;13.326;2023-02-23T10:33:15;100806.69;;;9.31;78.91
15750;BME280;7976;52.526;13.326;2023-02-23T10:35:46;100821.09;;;9.42;78.35
15750;BME280;7976;52.526;13.326;2023-02-23T10:38:16;100820.94;;;9.47;78.48
15750;BME280;7976;52.526;13.326;2023-02-23T10:40:45;100818.13;;;9.53;78.34
15750;BME280;7976;52.526;13.326;2023-02-23T10:43:14;100818.63;;;9.65;78.42
15750;BME280;7976;52.526;13.326;2023-02-23T10:45:49;100808.66;;;9.76;78.01
15750;BME280;7976;52.526;13.326;2023-02-23T10:48:20;100813.53;;;9.87;78.05
15750;BME280;7976;52.526;13.326;2023-02-23T10:50:51;100801.91;;;9.95;77.84
15750;BME280;7976;52.526;13.326;2023-02-23T10:53:24;100810.47;;;10.00;77.84
15750;BME280;7976;52.526;13.326;2023-02-23T10:56:05;100814.56;;;10.09;77.82
15750;BME280;7976;52.526;13.326;2023-02-23T10:58:41;100802.31;;;10.11;77.90
15750;BME280;7976;52.526;13.326;2023-02-23T11:01:15;100804.75;;;10.16;77.63
15750;BME280;7976;52.526;13.326;2023-02-23T11:03:46;100804.63;;;10.19;77.58
15750;BME280;7976;52.526;13.326;2023-02-23T11:06:31;100802.81;;;10.21;77.43
15750;BME280;7976;52.526;13.326;2023-02-23T11:09:17;100796.53;;;10.26;77.52
15750;BME280;7976;52.526;13.326;2023-02-23T11:11:56;100789.31;;;10.33;77.30
15750;BME280;7976;52.526;13.326;2023-02-23T11:14:26;100790.00;;;10.38;77.55
15750;BME280;7976;52.526;13.326;2023-02-23T11:16:57;100782.84;;;10.43;77.48
15750;BME280;7976;52.526;13.326;2023-02-23T11:19:32;100790.34;;;10.52;77.48
15750;BME280;7976;52.526;13.326;2023-02-23T11:22:03;100790.97;;;10.60;77.20
15750;BME280;7976;52.526;13.326;2023-02-23T11:24:34;100784.63;;;10.65;77.59
15750;BME280;7976;52.526;13.326;2023-02-23T11:27:06;100786.13;;;10.72;77.80
15750;BME280;7976;52.526;13.326;2023-02-23T11:29:37;100784.84;;;10.82;77.65
15750;BME280;7976;52.526;13.326;2023-02-23T11:32:11;100787.97;;;10.92;77.42
15750;BME280;7976;52.526;13.326;2023-02-23T11:34:40;100782.75;;;10.92;76.90
15750;BME280;7976;52.526;13.326;2023-02-23T11:37:21;100787.16;;;10.91;77.09
15750;BME280;7976;52.526;13.326;2023-02-23T11:39:53;100777.56;;;10.90;76.91
15750;BME280;7976;52.526;13.326;2023-02-23T11:42:22;100780.25;;;10.89;76.87
15750;BME280;7976;52.526;13.326;2023-02-23T11:45:04;100775.00;;;10.89;77.08
15750;BME280;7976;52.526;13.326;2023-02-23T11:47:38;100771.19;;;10.97;77.38
15750;BME280;7976;52.526;13.326;2023-02-23T11:50:19;100768.22;;;11.06;76.96
15750;BME280;7976;52.526;13.326;2023-02-23T11:52:54;100755.00;;;11.09;76.88
15750;BME280;7976;52.526;13.326;2023-02-23T11:55:22;100753.75;;;11.19;76.28
15750;BME280;7976;52.526;13.326;2023-02-23T11:57:51;100755.28;;;11.25;76.46
15750;BME280;7976;52.526;13.326;2023-02-23T12:00:25;100750.09;;;11.23;76.11
15750;BME280;7976;52.526;13.326;2023-02-23T12:02:59;100755.28;;;11.25;76.46
15750;BME280;7976;52.526;13.326;2023-02-23T12:05:29;100744.78;;;11.25;76.37
15750;BME280;7976;52.526;13.326;2023-02-23T12:08:04;100738.34;;;11.33;76.10
15750;BME280;7976;52.526;13.326;2023-02-23T12:10:38;100745.88;;;11.41;75.98
15750;BME280;7976;52.526;13.326;2023-02-23T12:13:24;100747.19;;;11.51;75.71
15750;BME280;7976;52.526;13.326;2023-02-23T12:15:58;100752.00;;;11.62;75.58
15750;BME280;7976;52.526;13.326;2023-02-23T12:18:42;100739.41;;;11.71;75.51
15750;BME280;7976;52.526;13.326;2023-02-23T12:21:23;100748.91;;;11.74;75.42
15750;BME280;7976;52.526;13.326;2023-02-23T12:24:04;100738.38;;;11.75;75.52
15750;BME280;7976;52.526;13.326;2023-02-23T12:26:44;100743.53;;;11.77;75.14
15750;BME280;7976;52.526;13.326;2023-02-23T12:29:22;100739.25;;;11.74;75.40
15750;BME280;7976;52.526;13.326;2023-02-23T12:31:58;100729.50;;;11.78;75.28
15750;BME280;7976;52.526;13.326;2023-02-23T12:34:39;100731.09;;;11.82;75.18
15750;BME280;7976;52.526;13.326;2023-02-23T12:37:25;100726.69;;;11.82;75.56
15750;BME280;7976;52.526;13.326;2023-02-23T12:40:03;100729.25;;;11.84;75.87
15750;BME280;7976;52.526;13.326;2023-02-23T12:42:42;100729.94;;;11.87;75.73
15750;BME280;7976;52.526;13.326;2023-02-23T12:45:20;100725.44;;;11.91;75.96
15750;BME280;7976;52.526;13.326;2023-02-23T12:47:56;100726.28;;;11.91;76.16
15750;BME280;7976;52.526;13.326;2023-02-23T12:50:31;100725.56;;;11.88;76.10
15750;BME280;7976;52.526;13.326;2023-02-23T12:53:10;100723.09;;;11.85;76.42
15750;BME280;7976;52.526;13.326;2023-02-23T12:55:50;100724.06;;;11.82;76.60
15750;BME280;7976;52.526;13.326;2023-02-23T12:58:33;100724.25;;;11.78;76.81
15750;BME280;7976;52.526;13.326;2023-02-23T13:01:05;100721.13;;;11.70;76.75
15750;BME280;7976;52.526;13.326;2023-02-23T13:04:13;100722.22;;;11.64;77.14
15750;BME280;7976;52.526;13.326;2023-02-23T13:06:55;100725.13;;;11.57;77.38
15750;BME280;7976;52.526;13.326;2023-02-23T13:09:44;100722.00;;;11.49;77.48
15750;BME280;7976;52.526;13.326;2023-02-23T13:12:28;100716.19;;;11.40;77.72
15750;BME280;7976;52.526;13.326;2023-02-23T13:15:29;100717.03;;;11.41;78.18
15750;BME280;7976;52.526;13.326;2023-02-23T13:18:05;100706.44;;;11.44;78.21
15750;BME280;7976;52.526;13.326;2023-02-23T13:20:41;100703.66;;;11.49;78.43
15750;BME280;7976;52.526;13.326;2023-02-23T13:23:20;100707.75;;;11.54;78.44
15750;BME280;7976;52.526;13.326;2023-02-23T13:25:59;100704.09;;;11.58;78.53
15750;BME280;7976;52.526;13.326;2023-02-23T13:28:49;100704.91;;;11.60;78.54
15750;BME280;7976;52.526;13.326;2023-02-23T13:31:24;100706.53;;;11.63;78.73
15750;BME280;7976;52.526;13.326;2023-02-23T13:33:56;100706.50;;;11.64;78.53
15750;BME280;7976;52.526;13.326;2023-02-23T13:36:26;100709.16;;;11.63;78.72
15750;BME280;7976;52.526;13.326;2023-02-23T13:39:20;100706.66;;;11.60;78.92